Time;durP1;ratioP1;P1;durP2;ratioP2;P2;SDS_P1;SDS_P2;PMS_P1;PMS_P2;Temp;Humidity;BMP_temperature;BMP_pressure;BME280_temperature;BME280_humidity;BME280_pressure;Samples;Min_cycle;Max_cycle;Signal;HPM_P1;HPM_P2
2021/07/05 00:01:47;;;;;;;18.93;17.50;;;15.10;99.90;;;;;;5022384;28;20503;-69
2021/07/05 00:04:13;;;;;;;18.37;16.90;;;15.10;99.90;;;;;;5021827;28;20947;-69
2021/07/05 00:06:40;;;;;;;18.87;17.27;;;15.10;99.90;;;;;;5018000;28;20465;-69
2021/07/05 00:09:08;;;;;;;19.90;18.07;;;15.00;99.90;;;;;;5019279;28;21044;-70
2021/07/05 00:11:36;;;;;;;18.17;16.77;;;15.10;99.90;;;;;;5018195;28;20480;-69
2021/07/05 00:14:03;;;;;;;19.13;17.27;;;15.00;99.90;;;;;;5021116;28;20554;-69
2021/07/05 00:16:31;;;;;;;18.47;16.60;;;15.00;99.90;;;;;;5021088;28;20724;-69
2021/07/05 00:18:59;;;;;;;19.40;17.00;;;15.00;99.90;;;;;;5017754;28;20846;-71
2021/07/05 00:21:26;;;;;;;19.67;17.67;;;15.00;99.90;;;;;;5024052;28;20503;-68
2021/07/05 00:23:53;;;;;;;18.87;17.17;;;15.00;99.90;;;;;;5012978;28;20472;-70
2021/07/05 00:26:20;;;;;;;20.10;17.40;;;15.00;99.90;;;;;;5019538;28;20979;-68
2021/07/05 00:28:47;;;;;;;19.00;17.37;;;15.00;99.90;;;;;;5024531;28;20472;-70
2021/07/05 00:31:15;;;;;;;22.57;17.10;;;15.00;99.90;;;;;;5026219;28;20584;-68
2021/07/05 00:33:44;;;;;;;18.83;17.07;;;15.00;99.90;;;;;;5022822;28;20774;-69
2021/07/05 00:36:12;;;;;;;17.80;16.40;;;15.00;99.90;;;;;;5022929;28;20503;-71
2021/07/05 00:38:39;;;;;;;25.30;18.40;;;15.00;99.90;;;;;;5019853;28;20473;-70
2021/07/05 00:41:06;;;;;;;19.13;17.17;;;15.00;99.90;;;;;;5026308;28;20502;-70
2021/07/05 00:43:33;;;;;;;17.90;16.40;;;15.10;99.90;;;;;;5022645;28;20465;-71
2021/07/05 00:46:01;;;;;;;19.37;17.63;;;15.10;99.90;;;;;;5024278;28;20924;-69
2021/07/05 00:48:28;;;;;;;18.87;17.40;;;15.10;99.90;;;;;;5022530;28;20444;-69
2021/07/05 00:50:57;;;;;;;19.50;17.43;;;15.10;99.90;;;;;;5024828;28;20950;-69
2021/07/05 00:53:24;;;;;;;20.03;17.63;;;15.10;99.90;;;;;;5026756;28;20681;-69
2021/07/05 00:55:51;;;;;;;19.30;17.60;;;15.00;99.90;;;;;;5019956;28;20469;-69
2021/07/05 00:58:19;;;;;;;18.00;16.60;;;15.00;99.90;;;;;;5023160;28;20490;-70
2021/07/05 01:00:47;;;;;;;23.23;17.67;;;15.00;99.90;;;;;;5027249;28;20563;-69
2021/07/05 01:03:15;;;;;;;19.10;17.40;;;15.10;99.90;;;;;;5023965;28;20483;-69
2021/07/05 01:05:42;;;;;;;19.40;17.43;;;15.00;99.90;;;;;;5023840;28;20458;-69
2021/07/05 01:08:12;;;;;;;18.80;17.10;;;15.00;99.90;;;;;;5023672;28;20507;-72
2021/07/05 01:10:39;;;;;;;18.97;17.40;;;14.90;99.90;;;;;;5021035;28;20469;-69
2021/07/05 01:13:07;;;;;;;19.17;17.00;;;14.90;99.90;;;;;;5021847;28;20784;-69
2021/07/05 01:15:37;;;;;;;18.57;16.93;;;14.90;99.90;;;;;;5022294;28;20465;-70
2021/07/05 01:18:06;;;;;;;23.93;18.10;;;15.00;99.90;;;;;;5025285;28;20462;-68
2021/07/05 01:20:35;;;;;;;20.00;17.20;;;15.00;99.90;;;;;;5021466;28;21258;-72
2021/07/05 01:23:04;;;;;;;19.60;18.20;;;15.00;99.90;;;;;;5026069;28;20552;-71
2021/07/05 01:25:33;;;;;;;20.37;18.47;;;15.00;99.90;;;;;;5021544;28;20453;-68
2021/07/05 01:28:01;;;;;;;22.77;18.23;;;14.90;99.90;;;;;;5024191;28;20469;-69
2021/07/05 01:30:29;;;;;;;19.73;17.97;;;14.90;99.90;;;;;;5020124;28;20507;-69
2021/07/05 01:32:58;;;;;;;20.73;18.70;;;14.90;99.90;;;;;;5020715;28;20559;-70
2021/07/05 01:35:25;;;;;;;20.33;18.50;;;14.90;99.90;;;;;;5026357;28;20462;-69
2021/07/05 01:37:54;;;;;;;22.63;18.40;;;14.90;99.90;;;;;;5023529;28;20551;-71
2021/07/05 01:40:23;;;;;;;22.00;18.23;;;14.90;99.90;;;;;;5021074;28;20542;-69
2021/07/05 01:42:54;;;;;;;19.60;17.43;;;14.90;99.90;;;;;;5021637;28;20454;-69
2021/07/05 01:45:25;;;;;;;21.27;17.07;;;15.00;99.90;;;;;;5020009;28;20556;-70
2021/07/05 01:47:52;;;;;;;18.53;16.83;;;15.10;99.90;;;;;;5026033;28;20542;-69
2021/07/05 01:50:21;;;;;;;19.97;17.60;;;15.10;99.90;;;;;;5024317;28;20461;-69
2021/07/05 01:52:49;;;;;;;18.70;17.07;;;15.20;99.90;;;;;;5019790;28;21389;-70
2021/07/05 01:55:17;;;;;;;21.00;17.60;;;15.30;99.90;;;;;;5016913;28;20519;-69
2021/07/05 01:57:46;;;;;;;19.17;17.30;;;15.30;99.90;;;;;;5016811;28;20467;-69
2021/07/05 02:00:16;;;;;;;18.40;17.07;;;15.30;99.90;;;;;;5025104;28;20455;-70
2021/07/05 02:02:45;;;;;;;19.30;17.33;;;15.40;99.90;;;;;;5019846;28;20464;-69
2021/07/05 02:05:17;;;;;;;19.23;17.37;;;15.40;99.90;;;;;;5026296;28;20986;-70
2021/07/05 02:07:46;;;;;;;19.10;17.80;;;15.50;99.90;;;;;;5019778;28;20551;-68
2021/07/05 02:10:16;;;;;;;19.90;18.50;;;15.50;99.90;;;;;;5019211;28;20465;-69
2021/07/05 02:12:43;;;;;;;20.80;19.00;;;15.50;99.90;;;;;;5020978;28;20822;-69
2021/07/05 02:15:14;;;;;;;22.13;19.90;;;15.50;99.90;;;;;;5019707;28;20473;-68
2021/07/05 02:17:42;;;;;;;23.97;21.50;;;15.60;99.90;;;;;;5024114;28;20469;-71
2021/07/05 02:20:12;;;;;;;23.33;20.80;;;15.50;99.90;;;;;;5020379;28;20465;-69
2021/07/05 02:22:39;;;;;;;24.23;21.50;;;15.50;99.90;;;;;;5024764;28;20460;-69
2021/07/05 02:25:08;;;;;;;24.23;21.80;;;15.50;99.90;;;;;;5021689;28;20475;-69
2021/07/05 02:27:35;;;;;;;23.93;21.53;;;15.40;99.90;;;;;;5020638;28;20535;-69
2021/07/05 02:30:05;;;;;;;22.43;20.73;;;15.40;99.90;;;;;;5022521;28;20848;-69
2021/07/05 02:32:34;;;;;;;25.53;20.47;;;15.40;99.90;;;;;;5025503;28;20464;-72
2021/07/05 02:35:00;;;;;;;21.60;19.37;;;15.30;99.90;;;;;;5028887;28;20460;-69
2021/07/05 02:37:27;;;;;;;21.70;19.77;;;15.40;99.90;;;;;;5025393;28;20461;-69
2021/07/05 02:39:54;;;;;;;22.10;19.77;;;15.40;99.90;;;;;;5022698;28;20499;-69
2021/07/05 02:42:20;;;;;;;22.57;19.97;;;15.50;99.90;;;;;;5017919;28;20497;-69
2021/07/05 02:44:47;;;;;;;20.30;19.00;;;15.50;99.90;;;;;;5024055;28;20469;-70
2021/07/05 02:47:15;;;;;;;20.37;18.30;;;15.40;99.90;;;;;;5026400;28;20465;-71
2021/07/05 02:49:43;;;;;;;21.97;18.30;;;15.40;99.90;;;;;;5022815;28;20532;-68
2021/07/05 02:52:12;;;;;;;19.73;18.10;;;15.50;99.90;;;;;;5017122;28;20564;-69
2021/07/05 02:54:39;;;;;;;20.27;18.63;;;15.50;99.90;;;;;;5023038;28;20471;-71
2021/07/05 02:57:08;;;;;;;19.40;17.77;;;15.50;99.90;;;;;;5018707;28;20470;-71
2021/07/05 02:59:36;;;;;;;21.27;18.63;;;15.50;99.90;;;;;;5018685;28;20473;-69
2021/07/05 03:02:05;;;;;;;21.10;19.00;;;15.50;99.90;;;;;;5022961;28;20484;-70
2021/07/05 03:04:31;;;;;;;20.47;18.43;;;15.50;99.90;;;;;;5025880;28;20955;-70
2021/07/05 03:07:00;;;;;;;19.97;17.90;;;15.60;99.90;;;;;;5020303;28;20971;-69
2021/07/05 03:09:27;;;;;;;19.53;18.00;;;15.60;99.90;;;;;;5019688;28;20462;-69
2021/07/05 03:11:55;;;;;;;19.83;18.33;;;15.60;99.90;;;;;;5020429;28;20476;-69
2021/07/05 03:14:22;;;;;;;19.57;17.93;;;15.80;99.90;;;;;;5022070;28;20472;-69
2021/07/05 03:16:49;;;;;;;19.53;17.50;;;15.90;99.90;;;;;;5017545;28;20457;-69
2021/07/05 03:19:17;;;;;;;47.80;21.43;;;16.00;99.90;;;;;;5021928;28;20998;-69
2021/07/05 03:21:44;;;;;;;15.50;14.80;;;16.10;99.90;;;;;;5020551;28;20562;-70
2021/07/05 03:24:12;;;;;;;16.00;15.23;;;16.00;99.90;;;;;;5020106;28;20464;-69
2021/07/05 03:26:40;;;;;;;13.43;12.83;;;15.90;99.90;;;;;;5023377;28;20837;-70
2021/07/05 03:29:07;;;;;;;13.40;12.80;;;15.80;99.90;;;;;;5015311;28;20544;-70
2021/07/05 03:31:34;;;;;;;13.00;12.50;;;15.70;99.90;;;;;;5015144;28;21031;-69
2021/07/05 03:34:01;;;;;;;13.83;13.23;;;15.60;99.90;;;;;;5022565;28;20456;-69
2021/07/05 03:36:28;;;;;;;13.23;12.63;;;15.50;99.90;;;;;;5021929;28;20467;-71
2021/07/05 03:38:55;;;;;;;14.40;13.80;;;15.40;99.90;;;;;;5019153;28;20887;-69
2021/07/05 03:41:24;;;;;;;14.30;13.70;;;15.30;99.90;;;;;;5020003;28;20481;-69
2021/07/05 03:43:52;;;;;;;14.07;13.47;;;15.20;99.90;;;;;;5023448;28;20457;-72
2021/07/05 03:46:20;;;;;;;14.07;13.47;;;15.20;99.90;;;;;;5015704;28;21033;-69
2021/07/05 03:48:47;;;;;;;17.63;16.20;;;15.20;99.90;;;;;;5021047;28;20632;-71
2021/07/05 03:51:14;;;;;;;23.37;17.10;;;15.10;99.90;;;;;;5019022;28;20473;-71
2021/07/05 03:53:41;;;;;;;13.90;13.30;;;15.10;99.90;;;;;;5020926;28;20496;-70
2021/07/05 03:56:09;;;;;;;13.40;12.80;;;15.00;99.90;;;;;;5019891;28;20465;-70
2021/07/05 03:58:38;;;;;;;13.70;13.10;;;14.90;99.90;;;;;;5021148;28;20469;-70
2021/07/05 04:01:05;;;;;;;25.63;15.50;;;14.80;99.90;;;;;;5020738;28;20485;-71
2021/07/05 04:03:32;;;;;;;15.63;14.83;;;14.70;99.90;;;;;;5020719;28;20917;-69
2021/07/05 04:05:59;;;;;;;16.40;15.30;;;14.70;99.90;;;;;;5026604;28;20768;-69
2021/07/05 04:08:29;;;;;;;41.20;14.80;;;14.70;99.90;;;;;;5020225;28;20460;-72
2021/07/05 04:10:57;;;;;;;12.77;12.27;;;14.60;99.90;;;;;;5021712;28;20551;-69
2021/07/05 04:13:27;;;;;;;12.50;12.00;;;14.50;99.90;;;;;;5027227;28;20972;-69
2021/07/05 04:15:55;;;;;;;12.40;11.90;;;14.50;99.90;;;;;;5025058;28;20823;-69
2021/07/05 04:18:22;;;;;;;13.20;12.60;;;14.60;99.90;;;;;;5026296;28;20472;-70
2021/07/05 04:20:49;;;;;;;12.97;12.47;;;14.50;99.90;;;;;;5027821;28;20460;-69
2021/07/05 04:23:16;;;;;;;12.93;12.40;;;14.50;99.90;;;;;;5021839;28;20496;-71
2021/07/05 04:25:44;;;;;;;13.20;12.60;;;14.50;99.90;;;;;;5025798;28;20456;-69
2021/07/05 04:28:11;;;;;;;13.33;12.73;;;14.50;99.90;;;;;;5017854;28;20475;-69
2021/07/05 04:30:38;;;;;;;12.90;12.30;;;14.50;99.90;;;;;;5027923;28;20515;-70
2021/07/05 04:33:07;;;;;;;13.40;12.80;;;14.50;99.90;;;;;;5022071;28;20827;-69
2021/07/05 04:35:34;;;;;;;13.30;12.70;;;14.50;99.90;;;;;;5020177;28;20458;-69
2021/07/05 04:38:02;;;;;;;12.77;12.27;;;14.50;99.90;;;;;;5018317;28;20472;-71
2021/07/05 04:40:31;;;;;;;13.13;12.53;;;14.50;99.90;;;;;;5024463;28;20496;-71
2021/07/05 04:42:58;;;;;;;13.40;12.80;;;14.40;99.90;;;;;;5021808;28;20578;-72
2021/07/05 04:45:28;;;;;;;13.80;13.20;;;14.40;99.90;;;;;;5024624;28;20464;-68
2021/07/05 04:47:56;;;;;;;13.50;12.90;;;14.40;99.90;;;;;;5020062;28;20508;-69
2021/07/05 04:50:26;;;;;;;13.90;13.30;;;14.40;99.90;;;;;;5026955;28;20467;-69
2021/07/05 04:52:53;;;;;;;13.90;13.30;;;14.40;99.90;;;;;;5021866;28;20990;-69
2021/07/05 04:55:21;;;;;;;13.13;12.53;;;14.30;99.90;;;;;;5027172;28;20465;-69
2021/07/05 04:57:51;;;;;;;13.43;12.83;;;14.30;99.90;;;;;;5018887;28;20461;-72
2021/07/05 05:00:21;;;;;;;14.00;13.40;;;14.40;99.90;;;;;;5023457;28;20487;-68
2021/07/05 05:02:48;;;;;;;13.63;13.03;;;14.40;99.90;;;;;;5020571;28;20493;-69
2021/07/05 05:05:15;;;;;;;14.00;13.40;;;14.40;99.90;;;;;;5017816;28;20471;-69
2021/07/05 05:07:43;;;;;;;14.07;13.47;;;14.50;99.90;;;;;;5024620;28;20469;-70
2021/07/05 05:10:14;;;;;;;13.73;13.13;;;14.50;99.90;;;;;;5018781;28;20457;-69
2021/07/05 05:12:41;;;;;;;14.40;13.70;;;14.50;99.90;;;;;;5018115;28;20465;-69
2021/07/05 05:15:10;;;;;;;14.23;13.63;;;14.50;99.90;;;;;;5021964;28;20460;-69
2021/07/05 05:17:38;;;;;;;14.13;13.53;;;14.50;99.90;;;;;;5023619;28;20476;-69
2021/07/05 05:20:08;;;;;;;15.20;14.50;;;14.60;99.90;;;;;;5023407;28;20464;-69
2021/07/05 05:22:37;;;;;;;16.23;15.43;;;14.50;99.90;;;;;;5022145;28;20485;-69
2021/07/05 05:25:06;;;;;;;15.03;14.33;;;14.60;99.90;;;;;;5020419;28;20472;-68
2021/07/05 05:27:33;;;;;;;14.93;14.23;;;14.70;99.90;;;;;;5027609;28;20464;-68
2021/07/05 05:30:00;;;;;;;15.13;14.43;;;14.70;99.90;;;;;;5021999;28;20491;-69
2021/07/05 05:32:27;;;;;;;15.20;14.50;;;14.80;99.90;;;;;;5020293;28;20473;-69
2021/07/05 05:34:54;;;;;;;14.77;14.07;;;14.80;99.90;;;;;;5020460;28;20493;-71
2021/07/05 05:37:21;;;;;;;14.70;14.00;;;14.90;99.90;;;;;;5023230;28;20470;-71
2021/07/05 05:39:48;;;;;;;14.67;13.97;;;14.90;99.90;;;;;;5028924;28;20488;-69
2021/07/05 05:42:17;;;;;;;15.60;14.90;;;15.00;99.90;;;;;;5025858;28;20500;-69
2021/07/05 05:44:45;;;;;;;15.73;14.97;;;15.10;99.90;;;;;;5026255;28;20821;-70
2021/07/05 05:47:12;;;;;;;16.20;15.40;;;15.10;99.90;;;;;;5023138;28;20472;-70
2021/07/05 05:49:39;;;;;;;14.80;14.10;;;15.30;99.90;;;;;;5026991;28;20467;-69
2021/07/05 05:52:06;;;;;;;15.50;14.80;;;15.40;99.90;;;;;;5024194;28;20495;-72
2021/07/05 05:54:33;;;;;;;16.50;15.60;;;15.50;99.90;;;;;;5020437;28;20541;-69
2021/07/05 05:57:01;;;;;;;15.60;14.90;;;15.50;99.90;;;;;;5027225;28;20465;-69
2021/07/05 05:59:30;;;;;;;15.43;14.73;;;15.60;99.90;;;;;;5021594;28;20468;-68
2021/07/05 06:01:58;;;;;;;14.87;14.17;;;15.60;99.90;;;;;;5021552;28;20524;-70
2021/07/05 06:04:25;;;;;;;15.10;14.40;;;15.70;99.90;;;;;;5024004;28;20475;-69
2021/07/05 06:06:52;;;;;;;14.20;13.50;;;15.70;99.90;;;;;;5026839;28;20456;-69
2021/07/05 06:09:19;;;;;;;13.93;13.33;;;15.80;99.90;;;;;;5021080;28;20458;-68
2021/07/05 06:11:47;;;;;;;14.47;13.77;;;15.70;99.90;;;;;;5024854;28;20463;-70
2021/07/05 06:14:14;;;;;;;14.10;13.50;;;15.70;99.90;;;;;;5023523;28;20461;-68
2021/07/05 06:16:42;;;;;;;13.77;13.17;;;15.70;99.90;;;;;;5029125;28;20943;-69
2021/07/05 06:19:09;;;;;;;13.90;13.30;;;15.60;99.90;;;;;;5023016;28;20465;-71
2021/07/05 06:21:37;;;;;;;13.83;13.23;;;15.40;99.90;;;;;;5022705;28;20457;-69
2021/07/05 06:24:04;;;;;;;13.40;12.80;;;15.40;99.90;;;;;;5015732;28;20516;-69
2021/07/05 06:26:30;;;;;;;13.87;13.27;;;15.50;99.90;;;;;;5026592;28;20465;-69
2021/07/05 06:28:57;;;;;;;13.90;13.30;;;15.50;99.90;;;;;;5018132;28;20763;-70
2021/07/05 06:31:24;;;;;;;13.00;12.50;;;15.60;99.90;;;;;;5024748;28;20490;-69
2021/07/05 06:33:52;;;;;;;12.90;12.40;;;15.80;99.90;;;;;;5019928;28;20460;-69
2021/07/05 06:36:21;;;;;;;11.90;11.40;;;16.00;99.90;;;;;;5023662;28;20907;-70
2021/07/05 06:38:48;;;;;;;11.93;11.43;;;16.00;99.90;;;;;;5023266;28;20492;-69
2021/07/05 06:41:15;;;;;;;11.60;11.10;;;16.10;99.90;;;;;;5025230;28;20556;-69
2021/07/05 06:43:42;;;;;;;11.47;10.97;;;16.30;99.90;;;;;;5024251;28;21041;-68
2021/07/05 06:46:10;;;;;;;10.80;10.40;;;16.40;99.90;;;;;;5024843;28;20504;-69
2021/07/05 06:48:38;;;;;;;11.00;10.60;;;16.60;99.90;;;;;;5019507;28;20477;-68
2021/07/05 06:51:06;;;;;;;10.90;10.50;;;16.90;99.90;;;;;;5024487;28;20487;-69
2021/07/05 06:53:34;;;;;;;11.07;10.67;;;16.90;99.90;;;;;;5023649;28;20555;-68
2021/07/05 06:56:02;;;;;;;11.13;10.70;;;17.40;99.90;;;;;;5025849;28;20537;-71
2021/07/05 06:58:29;;;;;;;11.20;10.80;;;17.60;99.90;;;;;;5024443;28;20475;-69
2021/07/05 07:00:56;;;;;;;14.37;13.57;;;17.80;99.90;;;;;;5022082;28;20479;-69
2021/07/05 07:03:24;;;;;;;15.83;14.40;;;17.90;99.90;;;;;;5022482;28;20487;-69
2021/07/05 07:05:52;;;;;;;14.70;13.43;;;18.30;99.90;;;;;;5024279;28;20523;-69
2021/07/05 07:08:21;;;;;;;14.03;13.00;;;18.50;99.90;;;;;;5018223;28;20472;-69
2021/07/05 07:10:47;;;;;;;16.10;14.63;;;18.80;99.90;;;;;;5024956;28;20502;-68
2021/07/05 07:13:15;;;;;;;14.30;13.40;;;18.60;99.90;;;;;;5019361;28;20876;-68
2021/07/05 07:15:46;;;;;;;14.70;13.13;;;18.80;99.90;;;;;;5022285;28;20476;-68
2021/07/05 07:18:32;;;;;;;15.07;13.90;;;18.90;99.90;;;;;;5019158;28;20480;-69
2021/07/05 07:21:00;;;;;;;15.53;14.53;;;19.00;99.90;;;;;;5016258;28;20826;-69
2021/07/05 07:23:28;;;;;;;15.73;14.50;;;19.20;99.90;;;;;;5023786;28;20668;-68
2021/07/05 07:25:55;;;;;;;19.00;14.70;;;19.30;99.90;;;;;;5019954;28;20459;-69
2021/07/05 07:28:23;;;;;;;14.93;13.80;;;19.40;99.90;;;;;;5017110;28;20525;-70
2021/07/05 07:30:51;;;;;;;15.93;14.57;;;19.50;99.90;;;;;;5015729;28;21086;-68
2021/07/05 07:33:18;;;;;;;16.50;15.00;;;19.40;99.90;;;;;;5022368;28;20547;-68
2021/07/05 07:35:46;;;;;;;15.20;14.40;;;19.40;99.90;;;;;;5016716;28;20469;-68
2021/07/05 07:38:13;;;;;;;16.20;14.77;;;19.40;99.90;;;;;;5018009;28;20471;-70
2021/07/05 07:40:42;;;;;;;14.50;13.50;;;19.60;99.90;;;;;;5018625;28;20575;-68
2021/07/05 07:43:10;;;;;;;15.63;14.63;;;19.80;99.90;;;;;;5020186;28;21023;-69
2021/07/05 07:45:37;;;;;;;16.50;15.30;;;20.00;99.90;;;;;;5023109;28;20970;-68
2021/07/05 07:48:04;;;;;;;17.07;15.77;;;20.00;99.90;;;;;;5015516;28;20457;-68
2021/07/05 07:50:31;;;;;;;16.27;15.20;;;20.50;99.90;;;;;;5020849;28;20555;-69
2021/07/05 07:52:59;;;;;;;16.20;15.20;;;20.80;99.90;;;;;;5022770;28;20461;-67
2021/07/05 07:55:27;;;;;;;16.40;15.30;;;21.10;99.90;;;;;;5024042;28;20551;-68
2021/07/05 07:57:57;;;;;;;16.70;15.40;;;20.80;99.90;;;;;;5018288;28;20844;-70
2021/07/05 08:00:24;;;;;;;17.47;16.23;;;20.50;99.90;;;;;;5024252;28;20476;-69
2021/07/05 08:02:51;;;;;;;16.87;15.67;;;20.70;99.90;;;;;;5023042;28;20484;-71
2021/07/05 08:05:18;;;;;;;16.70;15.60;;;21.00;99.90;;;;;;5023675;28;20981;-68
2021/07/05 08:07:45;;;;;;;17.10;15.90;;;21.00;99.90;;;;;;5022945;28;20456;-68
2021/07/05 08:10:15;;;;;;;16.77;15.53;;;20.50;99.90;;;;;;5023710;28;20473;-67
2021/07/05 08:12:43;;;;;;;17.10;15.77;;;20.60;99.90;;;;;;5022828;28;20962;-68
2021/07/05 08:15:12;;;;;;;18.00;16.60;;;21.20;99.90;;;;;;5018963;28;20462;-68
2021/07/05 08:17:41;;;;;;;17.33;16.07;;;21.20;99.90;;;;;;5014857;28;20452;-69
2021/07/05 08:20:10;;;;;;;18.03;16.63;;;21.20;99.90;;;;;;5024844;28;20464;-68
2021/07/05 08:22:37;;;;;;;17.00;15.90;;;20.80;99.90;;;;;;5018923;28;20488;-68
2021/07/05 08:25:07;;;;;;;17.60;16.50;;;20.80;99.90;;;;;;5025118;28;20543;-68
2021/07/05 08:27:35;;;;;;;16.37;15.37;;;21.00;99.90;;;;;;5019059;28;20457;-70
2021/07/05 08:30:02;;;;;;;16.90;15.70;;;21.10;99.90;;;;;;5021910;28;20478;-68
2021/07/05 08:32:30;;;;;;;16.93;15.80;;;21.30;99.90;;;;;;5017988;28;20491;-69
2021/07/05 08:34:58;;;;;;;17.13;16.10;;;21.20;99.90;;;;;;5022913;28;20464;-69
2021/07/05 08:37:26;;;;;;;18.00;16.60;;;21.20;99.90;;;;;;5019359;28;20926;-68
2021/07/05 08:39:53;;;;;;;18.47;16.90;;;20.80;99.90;;;;;;5023217;28;20476;-68
2021/07/05 08:42:24;;;;;;;17.67;16.53;;;20.50;99.90;;;;;;5022020;28;20468;-71
2021/07/05 08:44:51;;;;;;;17.53;16.43;;;20.40;99.90;;;;;;5023307;28;20960;-68
2021/07/05 08:47:19;;;;;;;17.10;16.03;;;20.50;99.90;;;;;;5027014;28;20461;-70
2021/07/05 08:49:49;;;;;;;22.23;20.17;;;20.20;99.90;;;;;;5022855;28;20476;-67
2021/07/05 08:52:17;;;;;;;18.27;16.70;;;20.40;99.90;;;;;;5021576;28;20974;-68
2021/07/05 08:54:44;;;;;;;16.93;15.97;;;20.90;99.90;;;;;;5023980;28;20556;-68
2021/07/05 08:57:26;;;;;;;17.47;16.50;;;21.00;99.90;;;;;;5021667;28;20471;-70
2021/07/05 08:59:54;;;;;;;17.63;16.37;;;20.30;99.90;;;;;;5021785;28;21231;-69
2021/07/05 09:02:21;;;;;;;17.10;15.90;;;20.90;99.90;;;;;;5030908;28;20873;-70
2021/07/05 09:04:49;;;;;;;16.97;15.90;;;21.00;99.90;;;;;;5025090;28;20453;-69
2021/07/05 09:07:17;;;;;;;18.27;16.97;;;21.40;99.90;;;;;;5026163;28;20807;-68
2021/07/05 09:10:00;;;;;;;17.23;16.23;;;21.70;99.90;;;;;;5025738;28;20768;-68
2021/07/05 09:12:27;;;;;;;16.67;15.57;;;21.60;99.90;;;;;;5017125;28;20539;-69
2021/07/05 09:15:07;;;;;;;16.83;15.73;;;21.70;99.90;;;;;;5023086;28;20826;-68
2021/07/05 09:17:36;;;;;;;17.00;16.00;;;21.40;99.90;;;;;;5027392;28;20464;-70
2021/07/05 09:20:20;;;;;;;17.33;16.13;;;20.90;99.90;;;;;;5023256;28;20510;-69
2021/07/05 09:23:10;;;;;;;16.30;15.40;;;21.00;99.90;;;;;;5022281;28;20460;-70
2021/07/05 09:25:38;;;;;;;16.30;15.30;;;21.40;99.90;;;;;;5022313;28;20462;-69
2021/07/05 09:28:05;;;;;;;16.30;15.33;;;21.40;99.90;;;;;;5023498;28;20468;-70
2021/07/05 09:30:40;;;;;;;17.00;16.00;;;21.80;99.90;;;;;;5024812;28;21014;-68
2021/07/05 09:33:20;;;;;;;16.40;15.50;;;21.90;99.90;;;;;;5016164;28;20540;-71
2021/07/05 09:35:51;;;;;;;17.70;16.10;;;22.20;99.90;;;;;;5025806;28;20478;-68
2021/07/05 09:38:32;;;;;;;17.40;16.20;;;22.20;99.90;;;;;;5021889;28;21123;-68
2021/07/05 09:41:17;;;;;;;17.30;16.00;;;22.10;99.90;;;;;;5025314;28;20520;-70
2021/07/05 09:43:44;;;;;;;16.90;15.80;;;22.20;99.90;;;;;;5026898;28;20505;-69
2021/07/05 09:46:11;;;;;;;17.40;16.23;;;22.00;99.90;;;;;;5029794;28;20460;-68
2021/07/05 09:48:45;;;;;;;17.90;16.40;;;22.00;99.90;;;;;;5024183;28;20473;-68
2021/07/05 09:51:18;;;;;;;16.60;15.63;;;21.90;99.90;;;;;;5022803;28;20468;-68
2021/07/05 09:53:48;;;;;;;16.73;15.53;;;21.70;99.90;;;;;;5022331;28;20988;-68
2021/07/05 09:56:23;;;;;;;16.63;15.70;;;21.60;99.90;;;;;;5018517;28;20462;-68
2021/07/05 09:58:52;;;;;;;16.70;15.50;;;21.30;99.90;;;;;;5015601;28;20460;-68
2021/07/05 10:01:36;;;;;;;17.13;15.83;;;21.10;99.90;;;;;;5028694;28;20456;-68
2021/07/05 10:04:05;;;;;;;17.03;15.77;;;21.70;99.90;;;;;;5024937;28;20484;-68
2021/07/05 10:06:40;;;;;;;18.63;17.10;;;22.40;99.90;;;;;;5023869;28;20548;-68
2021/07/05 10:09:07;;;;;;;16.50;15.50;;;23.30;99.90;;;;;;5024905;28;20460;-68
2021/07/05 10:11:36;;;;;;;16.50;15.50;;;24.10;99.90;;;;;;5024765;28;20468;-68
2021/07/05 10:14:15;;;;;;;17.33;16.03;;;23.90;99.90;;;;;;5026585;28;20457;-69
2021/07/05 10:16:44;;;;;;;17.80;16.40;;;24.10;99.90;;;;;;5022491;28;20457;-69
2021/07/05 10:19:16;;;;;;;17.23;15.90;;;23.50;99.90;;;;;;5028264;28;20543;-68
2021/07/05 10:21:45;;;;;;;16.30;15.33;;;24.20;99.90;;;;;;5026496;28;20472;-68
2021/07/05 10:24:14;;;;;;;16.47;15.13;;;24.70;99.90;;;;;;5021081;28;20986;-68
2021/07/05 10:26:43;;;;;;;15.90;15.10;;;24.50;99.90;;;;;;5021215;28;20466;-68
2021/07/05 10:29:11;;;;;;;16.27;15.47;;;24.80;99.90;;;;;;5024205;28;20487;-68
2021/07/05 10:31:41;;;;;;;15.97;14.80;;;24.90;99.90;;;;;;5027998;28;20830;-68
2021/07/05 10:34:09;;;;;;;16.80;15.27;;;25.00;99.90;;;;;;5022647;28;20468;-68
2021/07/05 10:36:40;;;;;;;16.40;14.83;;;25.50;99.90;;;;;;5020912;28;20491;-68
2021/07/05 10:39:11;;;;;;;15.27;14.30;;;25.60;99.90;;;;;;5026099;28;20883;-69
2021/07/05 10:41:40;;;;;;;15.10;14.40;;;26.00;99.90;;;;;;5017169;28;20465;-68
2021/07/05 10:44:09;;;;;;;15.03;14.13;;;26.10;99.80;;;;;;5021475;28;20605;-69
2021/07/05 10:46:44;;;;;;;15.27;14.20;;;26.10;99.70;;;;;;5028232;28;20448;-69
2021/07/05 10:49:42;;;;;;;15.00;14.00;;;26.50;99.80;;;;;;5025051;28;20488;-69
2021/07/05 10:52:12;;;;;;;16.50;14.40;;;26.80;98.30;;;;;;5018073;28;20508;-69
2021/07/05 10:54:45;;;;;;;15.57;14.50;;;27.20;98.50;;;;;;5023608;28;20515;-69
2021/07/05 10:57:14;;;;;;;15.90;15.00;;;27.00;97.70;;;;;;5023984;28;20465;-70
2021/07/05 10:59:43;;;;;;;14.93;14.23;;;27.30;97.40;;;;;;5022039;28;20457;-71
2021/07/05 11:02:40;;;;;;;15.07;14.27;;;27.70;96.40;;;;;;5019660;28;20519;-70
2021/07/05 11:05:44;;;;;;;15.73;14.93;;;27.20;96.60;;;;;;5015636;28;20500;-70
2021/07/05 11:08:31;;;;;;;15.33;14.37;;;26.80;97.60;;;;;;5011591;28;20457;-69
2021/07/05 11:11:21;;;;;;;15.60;14.70;;;26.00;99.00;;;;;;5023437;28;20496;-70
2021/07/05 11:14:08;;;;;;;16.17;15.10;;;26.10;98.90;;;;;;5020245;28;20532;-70
2021/07/05 11:17:08;;;;;;;15.27;14.30;;;26.20;99.90;;;;;;5015761;28;20461;-69
2021/07/05 11:19:47;;;;;;;15.37;14.37;;;25.40;99.90;;;;;;5022595;28;20467;-69
2021/07/05 11:22:20;;;;;;;15.00;14.07;;;25.80;99.90;;;;;;5017250;28;20459;-69
2021/07/05 11:24:56;;;;;;;15.43;14.37;;;25.80;99.90;;;;;;5016013;28;20555;-69
2021/07/05 11:27:46;;;;;;;14.77;13.97;;;25.40;99.90;;;;;;5018534;28;20472;-69
2021/07/05 11:30:20;;;;;;;15.57;14.70;;;25.30;99.90;;;;;;5024169;28;20548;-69
2021/07/05 11:32:48;;;;;;;15.23;14.30;;;25.30;99.90;;;;;;5019277;28;20839;-69
2021/07/05 11:35:31;;;;;;;15.70;14.80;;;25.00;99.90;;;;;;5018812;28;20464;-68
2021/07/05 11:38:00;;;;;;;15.57;14.77;;;24.30;99.90;;;;;;5019538;28;20964;-69
2021/07/05 11:40:56;;;;;;;15.17;14.20;;;25.10;99.90;;;;;;5018902;28;20481;-68
2021/07/05 11:43:47;;;;;;;15.17;14.37;;;25.20;99.90;;;;;;5017593;28;20514;-69
2021/07/05 11:46:20;;;;;;;15.37;14.53;;;25.00;99.90;;;;;;5019655;28;20467;-68
2021/07/05 11:48:58;;;;;;;15.27;14.47;;;24.40;99.90;;;;;;5014453;28;20465;-68
2021/07/05 11:51:28;;;;;;;15.97;15.27;;;24.20;99.90;;;;;;5021705;28;20468;-70
2021/07/05 11:53:59;;;;;;;15.53;14.63;;;24.10;99.90;;;;;;5020489;28;20851;-72
2021/07/05 11:56:41;;;;;;;16.27;15.03;;;23.90;99.90;;;;;;5024911;28;20943;-71
2021/07/05 11:59:11;;;;;;;15.00;14.10;;;23.90;99.90;;;;;;5018059;28;20472;-68
2021/07/05 12:01:41;;;;;;;16.13;15.23;;;23.50;99.90;;;;;;5021939;28;20586;-69
2021/07/05 12:04:10;;;;;;;18.50;17.00;;;23.50;99.90;;;;;;5022098;28;20994;-70
2021/07/05 12:06:38;;;;;;;19.10;18.10;;;23.00;99.90;;;;;;5024788;28;20497;-70
2021/07/05 12:09:07;;;;;;;20.30;18.80;;;22.30;99.90;;;;;;5018680;28;20465;-69
2021/07/05 12:11:41;;;;;;;19.40;18.17;;;21.50;99.90;;;;;;5018481;28;20543;-68
2021/07/05 12:14:16;;;;;;;20.40;19.10;;;21.20;99.90;;;;;;5016897;28;20465;-69
2021/07/05 12:16:46;;;;;;;20.47;19.27;;;21.00;99.90;;;;;;5023695;28;20495;-69
2021/07/05 12:19:16;;;;;;;21.27;20.07;;;20.70;99.90;;;;;;5021403;28;20466;-68
2021/07/05 12:21:48;;;;;;;20.80;19.60;;;20.00;99.90;;;;;;5015425;28;20461;-67
2021/07/05 12:24:24;;;;;;;21.13;19.63;;;19.90;99.90;;;;;;5020856;28;20496;-67
2021/07/05 12:26:54;;;;;;;21.87;20.37;;;19.50;99.90;;;;;;5022628;28;20469;-67
2021/07/05 12:29:27;;;;;;;21.00;19.70;;;19.60;99.90;;;;;;5024750;28;20459;-67
2021/07/05 12:32:16;;;;;;;21.30;19.90;;;19.70;99.90;;;;;;5026440;28;20481;-70
2021/07/05 12:34:49;;;;;;;21.40;20.00;;;19.40;99.90;;;;;;5018166;28;20469;-70
2021/07/05 12:37:20;;;;;;;20.70;19.50;;;19.20;99.90;;;;;;5020990;28;20457;-68
2021/07/05 12:39:51;;;;;;;19.77;18.67;;;19.00;99.90;;;;;;5021914;28;20487;-68
2021/07/05 12:42:33;;;;;;;19.87;18.47;;;18.80;99.90;;;;;;5028229;28;20457;-69